Overview Statistics Trail Chart Weather Telemetry Raw packets
 

This is the latest recevied weather packets stored in our database for station/object OK2JV-13. If no packets are shown the sender has not sent any weather packets the latest 10 day(s).

<< 41 42 43 44 >>
Time Temp. Humidity Pressure Rain* Wind** Luminosity Snow
1787827086 25° C 50% 1017.4 hPa - - - -
1787826482 24.44° C 51% 1017.3 hPa - - - -
1787825878 24.44° C 51% 1017.2 hPa - - - -
1787825274 24.44° C 51% 1017 hPa - - - -
1787824670 23.89° C 52% 1016.9 hPa - - - -
1787824068 23.33° C 52% 1017.2 hPa - - - -
1787823462 23.33° C 53% 1017.3 hPa - - - -
1787822860 23.33° C 52% 1017.1 hPa - - - -
1787822254 23.33° C 53% 1017.1 hPa - - - -
1787821650 22.78° C 54% 1017 hPa - - - -
1787821046 22.22° C 60% 1017.1 hPa - - - -
1787820442 22.22° C 60% 1017.2 hPa - - - -
1787819839 21.67° C 61% 1017.2 hPa - - - -
1787819233 20.56° C 63% 1017.1 hPa - - - -
1787818627 20° C 64% 1017.3 hPa - - - -
1787818023 18.33° C 70% 1017.3 hPa - - - -
1787817420 18.33° C 70% 1017.4 hPa - - - -
1787816816 17.78° C 70% 1017.5 hPa - - - -
1787816212 17.78° C 70% 1017.4 hPa - - - -
1787815607 17.78° C 71% 1017.4 hPa - - - -
1787815003 17.22° C 75% 1017.3 hPa - - - -
1787814399 16.67° C 77% 1017.1 hPa - - - -
1787813796 16.67° C 77% 1017.1 hPa - - - -
1787813191 16.11° C 79% 1017 hPa - - - -
1787812588 16.11° C 80% 1017.2 hPa - - - -

* Rain since midnight (hover to see other rain measurements)
** Current wind speed in m/s (hover to see current wind gust speed)